CheckWX is a tool to help pilots better visualize weather data.  It is not intended as a substitute for an official pre-flight weather briefing.

07:00:15 UTC

KIAD TAF
Washington Dulles International Airport
Washington, Virginia, USA
KIAD 210537Z 2106/2212 VRB03KT P6SM SKC FM220300 VRB03KT P6SM FEW050 SCT140

Sep-21@
06:00 UTC

Sep-21 @ 06:00 UTC

Sep-22@
03:00 UTC

Sep-22 @ 03:00 UTC

KIAD 210537Z 2106/2212 VRB03KT P6SM SKC
Wind
  • Variable at 3 KTS
Cloud Levels
  • Clear skies

Sep-22@
03:00 UTC

Sep-22 @ 03:00 UTC

Sep-22@
12:00 UTC

Sep-22 @ 12:00 UTC

FM220300 VRB03KT P6SM FEW050 SCT140

From

From Standard forecast or significant change

Wind
  • Variable at 3 KTS
Cloud Levels
  • Few at 5,000' AGL
  • Scattered at 14,000' AGL